createdAt,value
2022-11-15T00:00:14.762Z,101144.28
2022-11-15T00:02:16.210Z,101151.28
2022-11-15T00:04:17.716Z,101148.66
2022-11-15T00:06:19.144Z,101151.28
2022-11-15T00:08:20.619Z,101147.81
2022-11-15T00:10:22.196Z,101146.06
2022-11-15T00:12:23.644Z,101144.31
2022-11-15T00:14:25.064Z,101140.84
2022-11-15T00:16:26.659Z,101142.63
2022-11-15T00:18:29.111Z,101141.75
2022-11-15T00:20:30.879Z,101140.88
2022-11-15T00:22:34.310Z,101136.53
2022-11-15T00:24:35.730Z,101139.19
2022-11-15T00:26:37.206Z,101142.69
2022-11-15T00:28:38.671Z,101134.84
2022-11-15T00:30:41.095Z,101141.00
2022-11-15T00:32:42.503Z,101139.28
2022-11-15T00:34:43.904Z,101138.41
2022-11-15T00:36:45.367Z,101134.06
2022-11-15T00:38:46.776Z,101142.81
2022-11-15T00:40:48.205Z,101141.09
2022-11-15T00:42:49.631Z,101142.84
2022-11-15T00:44:51.060Z,101145.47
2022-11-15T00:46:52.527Z,101148.13
2022-11-15T00:48:53.970Z,101151.59
2022-11-15T00:50:55.433Z,101154.22
2022-11-15T00:52:56.878Z,101149.88
2022-11-15T00:54:58.291Z,101141.13
2022-11-15T00:56:59.712Z,101147.25
2022-11-15T00:59:01.123Z,101145.50
2022-11-15T01:01:15.024Z,101153.38
2022-11-15T01:03:16.518Z,101144.66
2022-11-15T01:05:18.101Z,101142.03
2022-11-15T01:07:19.602Z,101143.78
2022-11-15T01:09:21.132Z,101148.19
2022-11-15T01:11:22.611Z,101139.44
2022-11-15T01:13:24.023Z,101137.72
2022-11-15T01:15:25.552Z,101138.59
2022-11-15T01:17:27.251Z,101149.09
2022-11-15T01:19:28.663Z,101135.13
2022-11-15T01:21:30.282Z,101133.38
2022-11-15T01:23:32.067Z,101136.88
2022-11-15T01:25:33.760Z,101142.13
2022-11-15T01:27:35.218Z,101137.78
2022-11-15T01:29:36.761Z,101131.69
2022-11-15T01:31:38.970Z,101136.06
2022-11-15T01:33:40.441Z,101135.22
2022-11-15T01:35:41.955Z,101130.00
2022-11-15T01:37:43.360Z,101124.72
2022-11-15T01:39:44.766Z,101117.75
2022-11-15T01:41:46.248Z,101116.88
2022-11-15T01:43:56.918Z,101114.28
2022-11-15T01:46:15.658Z,101108.19
2022-11-15T01:48:16.999Z,101111.69
2022-11-15T01:50:23.420Z,101104.72
2022-11-15T01:52:27.471Z,101107.34
2022-11-15T01:54:29.443Z,101101.22
2022-11-15T01:56:37.088Z,101102.97
2022-11-15T01:58:40.998Z,101090.75
2022-11-15T02:00:42.585Z,101093.38
2022-11-15T02:02:44.471Z,101085.50
2022-11-15T02:04:47.963Z,101085.50
2022-11-15T02:06:49.801Z,101085.50
2022-11-15T02:08:51.896Z,101070.63
2022-11-15T02:10:53.329Z,101075.88
2022-11-15T02:12:57.071Z,101074.97
2022-11-15T02:14:58.713Z,101074.97
2022-11-15T02:17:21.129Z,101079.31
2022-11-15T02:19:34.581Z,101080.16
2022-11-15T02:21:44.867Z,101074.94
2022-11-15T02:23:58.303Z,101071.44
2022-11-15T02:26:11.869Z,101070.56
2022-11-15T02:28:22.455Z,101056.56
2022-11-15T02:30:42.405Z,101059.16
2022-11-15T02:32:50.515Z,101054.75
2022-11-15T02:35:18.626Z,101060.00
2022-11-15T02:37:34.862Z,101063.47
2022-11-15T02:40:02.841Z,101070.44
2022-11-15T02:42:34.390Z,101073.91
2022-11-15T02:44:42.867Z,101074.75
2022-11-15T02:47:11.567Z,101065.13
2022-11-15T02:49:15.427Z,101064.22
2022-11-15T02:51:17.744Z,101059.81
2022-11-15T02:53:19.281Z,101063.28
2022-11-15T02:55:51.374Z,101047.56
2022-11-15T02:58:05.062Z,101050.16
2022-11-15T03:00:10.864Z,101064.09
2022-11-15T03:02:51.048Z,101065.81
2022-11-15T03:04:57.621Z,101056.16
2022-11-15T03:07:12.521Z,101061.38
2022-11-15T03:09:27.508Z,101056.09
2022-11-15T03:11:34.034Z,101056.06
2022-11-15T03:13:41.065Z,101055.19
2022-11-15T03:15:52.461Z,101048.16
2022-11-15T03:18:01.524Z,101047.22
2022-11-15T03:20:06.829Z,101052.44
2022-11-15T03:22:12.161Z,101051.53
2022-11-15T03:24:19.780Z,101045.44
2022-11-15T03:26:24.606Z,101048.88
2022-11-15T03:28:43.631Z,101051.47
2022-11-15T03:30:48.856Z,101046.19
2022-11-15T03:32:59.040Z,101044.41
2022-11-15T03:35:24.815Z,101040.00
2022-11-15T03:37:37.042Z,101045.22
2022-11-15T03:39:38.588Z,101038.19
2022-11-15T03:41:58.563Z,101037.28
2022-11-15T03:44:28.178Z,101029.38
2022-11-15T03:46:35.322Z,101034.59
2022-11-15T03:48:43.836Z,101032.81
2022-11-15T03:50:47.380Z,101037.13
2022-11-15T03:52:50.542Z,101038.88
2022-11-15T03:54:55.848Z,101036.22
2022-11-15T03:56:57.407Z,101030.94
2022-11-15T03:58:58.896Z,101030.91
2022-11-15T04:01:00.494Z,101026.50
2022-11-15T04:03:02.029Z,101031.72
2022-11-15T04:05:04.271Z,101036.06
2022-11-15T04:07:05.763Z,101027.28
2022-11-15T04:09:07.347Z,101028.13
2022-11-15T04:11:08.917Z,101035.13
2022-11-15T04:13:10.488Z,101017.59
2022-11-15T04:15:14.800Z,101029.81
2022-11-15T04:17:16.349Z,101031.53
2022-11-15T04:19:36.436Z,101025.41
2022-11-15T04:22:16.154Z,101024.50
2022-11-15T04:24:17.673Z,101021.84
2022-11-15T04:26:22.792Z,101018.31
2022-11-15T04:28:24.406Z,101027.03
2022-11-15T04:30:25.891Z,101029.66
2022-11-15T04:32:27.411Z,101036.63
2022-11-15T04:34:28.938Z,101033.09
2022-11-15T04:36:48.748Z,101039.22
2022-11-15T04:38:50.166Z,101041.81
2022-11-15T04:40:51.669Z,101039.19
2022-11-15T04:42:53.145Z,101033.03
2022-11-15T04:44:54.581Z,101034.75
2022-11-15T04:46:56.047Z,101035.59
2022-11-15T04:48:59.216Z,101032.06
2022-11-15T04:51:00.877Z,101025.91
2022-11-15T04:53:02.345Z,101028.50
2022-11-15T04:55:08.121Z,101034.59
2022-11-15T04:57:09.902Z,101031.09
2022-11-15T04:59:11.356Z,101028.41
2022-11-15T05:01:15.621Z,101041.53
2022-11-15T05:03:35.944Z,101033.63
2022-11-15T05:05:37.982Z,101027.44
2022-11-15T05:07:39.384Z,101030.06
2022-11-15T05:09:40.813Z,101039.66
2022-11-15T05:11:42.316Z,101031.75
2022-11-15T05:13:43.926Z,101040.47
2022-11-15T05:15:45.396Z,101033.44
2022-11-15T05:17:46.878Z,101038.66
2022-11-15T05:19:48.395Z,101034.22
2022-11-15T05:21:49.895Z,101040.34
2022-11-15T05:23:51.389Z,101029.81
2022-11-15T05:25:52.821Z,101028.91
2022-11-15T05:27:54.528Z,101020.09
2022-11-15T05:29:56.088Z,101014.81
2022-11-15T05:31:57.771Z,101019.16
2022-11-15T05:34:00.943Z,101015.63
2022-11-15T05:36:26.580Z,101019.13
2022-11-15T05:38:28.025Z,101016.47
2022-11-15T05:40:30.765Z,101022.59
2022-11-15T05:42:32.199Z,101022.53
2022-11-15T05:44:35.085Z,101025.97
2022-11-15T05:46:40.131Z,101021.53
2022-11-15T05:48:46.179Z,101012.75
2022-11-15T05:50:48.790Z,101009.22
2022-11-15T05:52:51.230Z,101011.81
2022-11-15T05:54:53.507Z,101010.03
2022-11-15T05:56:56.779Z,101014.38
2022-11-15T05:58:59.918Z,101020.47
2022-11-15T06:01:01.841Z,101018.69
2022-11-15T06:03:03.380Z,101016.91
2022-11-15T06:05:05.200Z,101016.84
2022-11-15T06:07:06.670Z,101018.59
2022-11-15T06:09:08.106Z,101017.69
2022-11-15T06:11:09.594Z,101019.41
2022-11-15T06:13:11.084Z,101021.13
2022-11-15T06:15:12.569Z,101024.63
2022-11-15T06:17:13.987Z,101023.72
2022-11-15T06:19:15.484Z,101028.09
2022-11-15T06:21:16.961Z,101029.81
2022-11-15T06:23:18.616Z,101024.56
2022-11-15T06:25:20.053Z,101031.53
2022-11-15T06:27:21.465Z,101033.25
2022-11-15T06:29:22.906Z,101034.13
2022-11-15T06:31:24.598Z,101032.38
2022-11-15T06:33:26.127Z,101034.97
2022-11-15T06:35:27.567Z,101037.59
2022-11-15T06:37:29.083Z,101031.44
2022-11-15T06:39:30.537Z,101037.53
2022-11-15T06:41:36.160Z,101039.28
2022-11-15T06:43:38.386Z,101041.03
2022-11-15T06:45:39.888Z,101040.09
2022-11-15T06:47:48.184Z,101042.69
2022-11-15T06:49:49.649Z,101033.91
2022-11-15T06:51:51.077Z,101044.41
2022-11-15T06:53:52.561Z,101038.25
2022-11-15T06:55:55.706Z,101043.47
2022-11-15T06:57:57.291Z,101041.72
2022-11-15T06:59:58.791Z,101044.31
2022-11-15T07:02:00.226Z,101047.78
2022-11-15T07:04:01.718Z,101049.53
2022-11-15T07:06:07.483Z,101046.00
2022-11-15T07:08:10.554Z,101050.38
2022-11-15T07:10:12.115Z,101039.84
2022-11-15T07:12:13.842Z,101050.38
2022-11-15T07:14:15.291Z,101053.88
2022-11-15T07:16:16.809Z,101053.84
2022-11-15T07:18:18.245Z,101052.94
2022-11-15T07:20:19.992Z,101049.44
2022-11-15T07:22:21.475Z,101057.31
2022-11-15T07:24:22.919Z,101047.66
2022-11-15T07:26:24.555Z,101058.19
2022-11-15T07:28:29.490Z,101052.00
2022-11-15T07:30:31.397Z,101045.81
2022-11-15T07:32:32.861Z,101037.00
2022-11-15T07:34:34.373Z,101042.16
2022-11-15T07:36:35.806Z,101046.47
2022-11-15T07:38:42.601Z,101042.88
2022-11-15T07:40:44.517Z,101043.66
2022-11-15T07:42:54.806Z,101046.25
2022-11-15T07:44:56.782Z,101050.50
2022-11-15T07:46:59.067Z,101047.78
2022-11-15T07:49:00.514Z,101040.66
2022-11-15T07:51:02.002Z,101044.09
2022-11-15T07:53:03.481Z,101044.91
2022-11-15T07:55:05.424Z,101031.66
2022-11-15T07:57:08.161Z,101035.09
2022-11-15T07:59:09.707Z,101033.28
2022-11-15T08:01:11.612Z,101034.94
2022-11-15T08:03:17.466Z,101039.28
2022-11-15T08:05:18.955Z,101039.22
2022-11-15T08:07:20.473Z,101048.84
2022-11-15T08:09:21.906Z,101052.28
2022-11-15T08:11:23.352Z,101047.81
2022-11-15T08:13:24.854Z,101044.28
2022-11-15T08:15:27.056Z,101040.69
2022-11-15T08:17:28.537Z,101043.25
2022-11-15T08:19:29.983Z,101041.41
2022-11-15T08:21:31.606Z,101043.94
2022-11-15T08:23:33.479Z,101042.94
2022-11-15T08:25:36.500Z,101046.31
2022-11-15T08:27:38.012Z,101043.59
2022-11-15T08:29:39.546Z,101048.78
2022-11-15T08:31:41.045Z,101045.16
2022-11-15T08:33:42.509Z,101049.47
2022-11-15T08:35:44.962Z,101048.47
2022-11-15T08:37:46.623Z,101044.91
2022-11-15T08:39:48.059Z,101045.69
2022-11-15T08:41:49.828Z,101049.97
2022-11-15T08:43:51.274Z,101051.69
2022-11-15T08:45:52.705Z,101050.75
2022-11-15T08:47:54.753Z,101060.31
2022-11-15T08:49:56.589Z,101044.44
2022-11-15T08:51:58.051Z,101053.16
2022-11-15T08:53:59.491Z,101050.44
2022-11-15T08:56:00.991Z,101051.25
2022-11-15T08:58:02.463Z,101051.19
2022-11-15T09:00:04.864Z,101049.31
2022-11-15T09:02:06.701Z,101051.88
2022-11-15T09:04:08.191Z,101043.91
2022-11-15T09:06:10.165Z,101045.63
2022-11-15T09:08:40.399Z,101043.84
2022-11-15T09:10:35.285Z,101052.59
2022-11-15T09:12:36.799Z,101049.81
2022-11-15T09:14:38.473Z,101053.25
2022-11-15T09:16:40.051Z,101047.00
2022-11-15T09:18:42.375Z,101045.16
2022-11-15T09:20:43.864Z,101042.44
2022-11-15T09:22:45.320Z,101043.16
2022-11-15T09:24:46.796Z,101045.78
2022-11-15T09:26:51.594Z,101058.84
2022-11-15T09:28:53.082Z,101051.72
2022-11-15T09:31:01.728Z,101053.41
2022-11-15T09:33:10.884Z,101047.16
2022-11-15T09:35:12.340Z,101040.06
2022-11-15T09:37:13.865Z,101046.16
2022-11-15T09:39:15.302Z,101048.69
2022-11-15T09:41:16.736Z,101052.00
2022-11-15T09:43:33.471Z,101045.63
2022-11-15T09:45:57.429Z,101043.63
2022-11-15T09:48:36.749Z,101041.63
2022-11-15T09:50:47.880Z,101038.84
2022-11-15T09:52:49.840Z,101031.66
2022-11-15T09:54:54.741Z,101036.00
2022-11-15T09:57:15.714Z,101036.72
2022-11-15T09:59:23.589Z,101035.75
2022-11-15T10:01:50.689Z,101031.28
2022-11-15T10:03:52.281Z,101044.41
2022-11-15T10:05:58.038Z,101045.19
2022-11-15T10:08:07.526Z,101032.81
2022-11-15T10:10:21.708Z,101034.50
2022-11-15T10:12:23.922Z,101032.72
2022-11-15T10:14:28.735Z,101020.31
2022-11-15T10:16:51.836Z,101026.44
2022-11-15T10:19:27.345Z,101031.63
2022-11-15T10:22:02.167Z,101026.22
2022-11-15T10:24:15.953Z,101024.31
2022-11-15T10:26:18.343Z,101028.63
2022-11-15T10:28:22.636Z,101025.88
2022-11-15T10:30:31.001Z,101016.97
2022-11-15T10:32:37.022Z,101013.31
2022-11-15T10:34:38.677Z,101004.41
2022-11-15T10:36:50.154Z,101004.28
2022-11-15T10:38:51.949Z,101004.19
2022-11-15T10:41:08.697Z,100989.06
2022-11-15T10:43:10.093Z,100995.06
2022-11-15T10:45:39.363Z,100985.09
2022-11-15T10:47:40.874Z,100983.84
2022-11-15T10:49:54.989Z,100971.34
2022-11-15T10:52:20.845Z,100962.03
2022-11-15T10:54:43.590Z,100967.88
2022-11-15T10:56:51.295Z,100963.75
2022-11-15T10:58:56.612Z,100966.41
2022-11-15T11:01:14.793Z,100955.72
2022-11-15T11:03:38.555Z,100960.34
2022-11-15T11:05:42.991Z,100950.59
2022-11-15T11:07:57.434Z,100954.91
2022-11-15T11:10:02.295Z,100954.00
2022-11-15T11:12:05.926Z,100950.59
2022-11-15T11:14:14.328Z,100947.09
2022-11-15T11:16:15.795Z,100942.63
2022-11-15T11:18:29.620Z,100945.16
2022-11-15T11:20:49.400Z,100937.53
2022-11-15T11:23:04.871Z,100931.50
2022-11-15T11:25:42.228Z,100925.25
2022-11-15T11:28:07.422Z,100931.31
2022-11-15T11:30:32.788Z,100925.59
2022-11-15T11:32:54.802Z,100919.56
2022-11-15T11:35:09.436Z,100911.50
2022-11-15T11:37:25.040Z,100910.13
2022-11-15T11:39:46.088Z,100904.34
2022-11-15T11:41:53.510Z,100912.53
2022-11-15T11:44:07.048Z,100911.00
2022-11-15T11:46:46.315Z,100909.50
2022-11-15T11:48:53.043Z,100910.66
2022-11-15T11:51:02.119Z,100906.41
2022-11-15T11:53:35.755Z,100911.78
2022-11-15T11:55:52.742Z,100911.78
2022-11-15T11:58:20.848Z,100920.53
2022-11-15T12:00:24.647Z,100922.47
2022-11-15T12:02:32.757Z,100919.81
2022-11-15T12:04:41.228Z,100912.84
2022-11-15T12:06:46.268Z,100916.38
2022-11-15T12:09:25.665Z,100909.31
2022-11-15T12:11:52.863Z,100912.91
2022-11-15T12:13:59.595Z,100907.66
2022-11-15T12:16:12.124Z,100903.22
2022-11-15T12:18:16.848Z,100912.91
2022-11-15T12:20:23.688Z,100904.16
2022-11-15T12:22:46.706Z,100901.56
2022-11-15T12:24:56.898Z,100893.53
2022-11-15T12:27:15.212Z,100881.75
2022-11-15T12:29:39.999Z,100868.13
2022-11-15T12:31:49.802Z,100867.72
2022-11-15T12:33:58.977Z,100863.94
2022-11-15T12:36:06.198Z,100863.81
2022-11-15T12:38:12.577Z,100858.50
2022-11-15T12:40:27.543Z,100859.22
2022-11-15T12:42:31.982Z,100867.06
2022-11-15T12:44:33.794Z,100863.47
2022-11-15T12:46:41.565Z,100860.00
2022-11-15T12:48:42.940Z,100862.75
2022-11-15T12:50:54.843Z,100867.13
2022-11-15T12:53:28.392Z,100860.72
2022-11-15T12:55:32.865Z,100852.69
2022-11-15T12:57:40.277Z,100855.34
2022-11-15T12:59:59.791Z,100844.63
2022-11-15T13:02:02.287Z,100850.75
2022-11-15T13:04:25.382Z,100843.72
2022-11-15T13:06:59.361Z,100847.22
2022-11-15T13:09:00.900Z,100841.13
2022-11-15T13:11:49.101Z,100847.66
2022-11-15T13:13:50.433Z,100832.91
2022-11-15T13:16:00.438Z,100835.72
2022-11-15T13:18:24.518Z,100831.44
2022-11-15T13:20:33.410Z,100824.34
2022-11-15T13:23:04.083Z,100827.84
2022-11-15T13:25:16.982Z,100832.28
2022-11-15T13:27:21.153Z,100833.94
2022-11-15T13:29:22.653Z,100825.88
2022-11-15T13:31:24.129Z,100838.25
2022-11-15T13:33:36.275Z,100842.56
2022-11-15T13:35:41.786Z,100837.09
2022-11-15T13:37:43.283Z,100840.63
2022-11-15T13:39:44.852Z,100837.88
2022-11-15T13:41:49.436Z,100837.88
2022-11-15T13:43:53.019Z,100836.88
2022-11-15T13:46:19.177Z,100837.75
2022-11-15T13:48:20.611Z,100835.88
2022-11-15T13:50:26.194Z,100829.63
2022-11-15T13:52:32.474Z,100836.75
2022-11-15T13:54:46.239Z,100836.75
2022-11-15T13:57:04.467Z,100828.75
2022-11-15T13:59:21.553Z,100829.69
2022-11-15T14:01:23.905Z,100830.63
2022-11-15T14:03:28.661Z,100821.88
2022-11-15T14:05:30.459Z,100821.06
2022-11-15T14:07:33.496Z,100822.94
2022-11-15T14:09:40.923Z,100824.81
2022-11-15T14:11:56.582Z,100819.84
2022-11-15T14:14:09.944Z,100820.03
2022-11-15T14:16:18.407Z,100814.78
2022-11-15T14:18:41.478Z,100812.47
2022-11-15T14:20:43.843Z,100809.09
2022-11-15T14:22:53.648Z,100802.25
2022-11-15T14:25:14.002Z,100809.59
2022-11-15T14:27:27.379Z,100810.69
2022-11-15T14:29:30.751Z,100804.56
2022-11-15T14:31:32.207Z,100799.53
2022-11-15T14:33:40.285Z,100801.41
2022-11-15T14:35:41.869Z,100803.56
2022-11-15T14:37:44.043Z,100802.91
2022-11-15T14:39:45.532Z,100802.13
2022-11-15T14:41:46.957Z,100808.44
2022-11-15T14:43:49.056Z,100793.63
2022-11-15T14:45:50.634Z,100792.09
2022-11-15T14:47:52.067Z,100796.75
2022-11-15T14:49:53.513Z,100800.47
2022-11-15T14:51:54.933Z,100802.41
2022-11-15T14:53:56.455Z,100802.59
2022-11-15T14:55:57.949Z,100793.97
2022-11-15T14:58:00.172Z,100789.00
2022-11-15T15:00:01.725Z,100783.09
2022-11-15T15:02:03.200Z,100782.41
2022-11-15T15:04:04.662Z,100783.59
2022-11-15T15:06:06.382Z,100785.59
2022-11-15T15:08:08.488Z,100781.47
2022-11-15T15:10:38.392Z,100783.66
2022-11-15T15:12:32.390Z,100783.16
2022-11-15T15:14:33.822Z,100772.88
2022-11-15T15:16:35.264Z,100773.19
2022-11-15T15:18:36.747Z,100773.53
2022-11-15T15:20:40.552Z,100772.91
2022-11-15T15:22:42.086Z,100776.66
2022-11-15T15:24:45.227Z,100780.34
2022-11-15T15:26:46.690Z,100772.69
2022-11-15T15:28:49.664Z,100761.41
2022-11-15T15:30:51.176Z,100768.59
2022-11-15T15:32:53.092Z,100770.47
2022-11-15T15:34:54.529Z,100773.25
2022-11-15T15:37:20.636Z,100774.31
2022-11-15T15:39:22.099Z,100768.47
2022-11-15T15:41:24.145Z,100770.34
2022-11-15T15:43:25.561Z,100768.75
2022-11-15T15:45:30.964Z,100753.84
2022-11-15T15:47:32.446Z,100753.94
2022-11-15T15:49:33.876Z,100743.47
2022-11-15T15:51:35.339Z,100748.88
2022-11-15T15:53:36.958Z,100743.78
2022-11-15T15:55:38.835Z,100749.19
2022-11-15T15:57:40.390Z,100744.09
2022-11-15T15:59:42.167Z,100739.84
2022-11-15T16:01:43.671Z,100736.44
2022-11-15T16:03:45.144Z,100746.28
2022-11-15T16:05:46.689Z,100746.44
2022-11-15T16:07:48.921Z,100747.47
2022-11-15T16:10:03.503Z,100744.94
2022-11-15T16:12:05.022Z,100737.09
2022-11-15T16:14:06.686Z,100742.56
2022-11-15T16:16:13.993Z,100732.91
2022-11-15T16:18:19.096Z,100733.84
2022-11-15T16:20:31.377Z,100721.66
2022-11-15T16:22:33.082Z,100723.47
2022-11-15T16:24:34.559Z,100715.56
2022-11-15T16:26:38.166Z,100706.75
2022-11-15T16:28:39.607Z,100708.53
2022-11-15T16:30:41.050Z,100709.41
2022-11-15T16:32:42.584Z,100699.78
2022-11-15T16:34:48.676Z,100700.66
2022-11-15T16:36:51.567Z,100701.56
2022-11-15T16:38:53.258Z,100699.78
2022-11-15T16:40:54.704Z,100696.34
2022-11-15T16:42:56.617Z,100688.34
2022-11-15T16:44:58.053Z,100696.22
2022-11-15T16:46:59.554Z,100697.09
2022-11-15T16:49:01.006Z,100688.31
2022-11-15T16:51:04.929Z,100690.94
2022-11-15T16:53:06.699Z,100682.19
2022-11-15T16:55:08.601Z,100690.06
2022-11-15T16:57:11.419Z,100696.19
2022-11-15T16:59:17.814Z,100690.88
2022-11-15T17:01:23.857Z,100689.09
2022-11-15T17:03:25.430Z,100690.94
2022-11-15T17:05:29.800Z,100690.03
2022-11-15T17:07:31.359Z,100694.41
2022-11-15T17:09:34.255Z,100690.84
2022-11-15T17:11:35.701Z,100694.41
2022-11-15T17:13:37.191Z,100686.47
2022-11-15T17:15:38.641Z,100692.63
2022-11-15T17:17:40.878Z,100691.75
2022-11-15T17:19:42.441Z,100688.25
2022-11-15T17:21:45.113Z,100683.88
2022-11-15T17:23:47.170Z,100670.66
2022-11-15T17:25:48.589Z,100672.44
2022-11-15T17:27:50.141Z,100678.63
2022-11-15T17:29:51.646Z,100676.00
2022-11-15T17:31:53.078Z,100678.63
2022-11-15T17:33:54.601Z,100672.50
2022-11-15T17:36:00.992Z,100670.72
2022-11-15T17:38:02.447Z,100669.84
2022-11-15T17:40:04.926Z,100670.72
2022-11-15T17:42:06.437Z,100659.22
2022-11-15T17:44:08.018Z,100661.00
2022-11-15T17:46:12.689Z,100653.88
2022-11-15T17:48:14.135Z,100657.38
2022-11-15T17:50:16.191Z,100652.09
2022-11-15T17:52:17.700Z,100652.03
2022-11-15T17:54:19.217Z,100645.81
2022-11-15T17:56:22.924Z,100648.41
2022-11-15T17:58:24.414Z,100644.00
2022-11-15T18:00:25.911Z,100644.84
2022-11-15T18:02:27.351Z,100643.06
2022-11-15T18:04:28.996Z,100647.44
2022-11-15T18:06:34.064Z,100645.63
2022-11-15T18:08:37.295Z,100652.59
2022-11-15T18:10:38.757Z,100644.66
2022-11-15T18:12:40.177Z,100640.25
2022-11-15T18:14:41.708Z,100644.66
2022-11-15T18:16:43.430Z,100642.94
2022-11-15T18:18:45.010Z,100641.16
2022-11-15T18:20:46.436Z,100643.81
2022-11-15T18:22:47.889Z,100639.38
2022-11-15T18:24:49.362Z,100635.88
2022-11-15T18:26:51.000Z,100646.44
2022-11-15T18:28:54.214Z,100635.91
2022-11-15T18:30:55.658Z,100636.78
2022-11-15T18:32:57.115Z,100639.50
2022-11-15T18:34:58.567Z,100639.50
2022-11-15T18:37:02.644Z,100628.06
2022-11-15T18:39:04.738Z,100633.41
2022-11-15T18:41:11.665Z,100630.78
2022-11-15T18:43:13.084Z,100628.19
2022-11-15T18:45:14.644Z,100625.53
2022-11-15T18:47:16.064Z,100628.22
2022-11-15T18:49:19.670Z,100623.81
2022-11-15T18:51:26.968Z,100620.34
2022-11-15T18:53:28.579Z,100622.19
2022-11-15T18:55:30.036Z,100619.59
2022-11-15T18:57:31.475Z,100621.44
2022-11-15T18:59:32.934Z,100614.31
2022-11-15T19:01:38.810Z,100617.78
2022-11-15T19:03:43.552Z,100613.41
2022-11-15T19:05:44.993Z,100606.38
2022-11-15T19:07:49.362Z,100606.38
2022-11-15T19:09:50.938Z,100605.59
2022-11-15T19:11:52.405Z,100597.69
2022-11-15T19:14:07.113Z,100606.56
2022-11-15T19:16:11.211Z,100604.81
2022-11-15T19:18:12.637Z,100594.25
2022-11-15T19:20:14.110Z,100601.31
2022-11-15T19:22:15.519Z,100600.50
2022-11-15T19:24:17.232Z,100595.22
2022-11-15T19:26:18.697Z,100594.38
2022-11-15T19:28:20.161Z,100597.00
2022-11-15T19:30:21.618Z,100600.56
2022-11-15T19:32:23.053Z,100593.56
2022-11-15T19:34:24.493Z,100593.56
2022-11-15T19:36:34.151Z,100588.31
2022-11-15T19:38:36.169Z,100595.41
2022-11-15T19:40:37.953Z,100587.53
2022-11-15T19:42:39.401Z,100590.22
2022-11-15T19:44:41.122Z,100591.13
2022-11-15T19:46:42.755Z,100594.69
2022-11-15T19:48:44.355Z,100585.97
2022-11-15T19:50:45.871Z,100588.59
2022-11-15T19:52:47.317Z,100584.22
2022-11-15T19:54:48.802Z,100588.66
2022-11-15T19:56:51.677Z,100585.16
2022-11-15T19:58:56.319Z,100582.50
2022-11-15T20:01:19.099Z,100579.88
2022-11-15T20:03:20.617Z,100579.91
2022-11-15T20:05:22.351Z,100579.06
2022-11-15T20:07:23.862Z,100577.28
2022-11-15T20:09:26.168Z,100574.63
2022-11-15T20:11:27.915Z,100578.19
2022-11-15T20:13:29.697Z,100572.91
2022-11-15T20:15:31.125Z,100567.63
2022-11-15T20:17:32.751Z,100571.13
2022-11-15T20:19:34.185Z,100564.94
2022-11-15T20:21:36.171Z,100568.44
2022-11-15T20:23:39.013Z,100557.91
2022-11-15T20:25:44.305Z,100567.56
2022-11-15T20:27:45.880Z,100557.06
2022-11-15T20:29:48.771Z,100561.41
2022-11-15T20:31:50.295Z,100564.88
2022-11-15T20:33:51.764Z,100562.22
2022-11-15T20:35:54.309Z,100555.16
2022-11-15T20:37:55.728Z,100563.94
2022-11-15T20:39:57.169Z,100559.53
2022-11-15T20:41:58.710Z,100555.97
2022-11-15T20:44:02.897Z,100549.75
2022-11-15T20:46:04.557Z,100548.03
2022-11-15T20:48:06.409Z,100555.09
2022-11-15T20:50:35.341Z,100552.41
2022-11-15T20:52:29.908Z,100541.88
2022-11-15T20:54:31.352Z,100541.88
2022-11-15T20:56:34.374Z,100547.22
2022-11-15T20:58:37.266Z,100549.88
2022-11-15T21:00:38.789Z,100539.34
2022-11-15T21:02:40.257Z,100536.66
2022-11-15T21:04:41.777Z,100533.22
2022-11-15T21:06:47.616Z,100527.91
2022-11-15T21:09:09.871Z,100527.97
2022-11-15T21:11:37.290Z,100527.97
2022-11-15T21:13:39.509Z,100522.75
2022-11-15T21:15:40.966Z,100521.84
2022-11-15T21:17:42.558Z,100520.06
2022-11-15T21:19:44.362Z,100516.59
2022-11-15T21:21:45.797Z,100524.53
2022-11-15T21:23:47.263Z,100521.03
2022-11-15T21:25:50.613Z,100511.31
2022-11-15T21:27:52.564Z,100516.59
2022-11-15T21:29:53.989Z,100517.47
2022-11-15T21:31:55.495Z,100516.59
2022-11-15T21:33:56.960Z,100516.59
2022-11-15T21:35:58.464Z,100513.03
2022-11-15T21:37:59.891Z,100511.25
2022-11-15T21:40:01.385Z,100500.69
2022-11-15T21:42:03.418Z,100505.06
2022-11-15T21:44:05.242Z,100497.13
2022-11-15T21:46:07.195Z,100496.22
2022-11-15T21:48:08.689Z,100494.47
2022-11-15T21:50:10.283Z,100489.13
2022-11-15T21:52:11.765Z,100484.72
2022-11-15T21:54:13.228Z,100488.22
2022-11-15T21:56:14.907Z,100490.00
2022-11-15T21:58:16.819Z,100493.50
2022-11-15T22:00:37.193Z,100487.34
2022-11-15T22:02:38.637Z,100490.81
2022-11-15T22:04:40.106Z,100495.19
2022-11-15T22:06:41.746Z,100486.38
2022-11-15T22:08:43.512Z,100485.53
2022-11-15T22:10:48.679Z,100486.44
2022-11-15T22:12:50.117Z,100484.59
2022-11-15T22:14:51.578Z,100484.66
2022-11-15T22:16:53.035Z,100481.16
2022-11-15T22:18:54.723Z,100484.66
2022-11-15T22:21:01.319Z,100485.53
2022-11-15T22:23:03.497Z,100480.22
2022-11-15T22:25:05.453Z,100481.97
2022-11-15T22:27:07.019Z,100471.38
2022-11-15T22:29:08.519Z,100467.88
2022-11-15T22:31:10.969Z,100460.81
2022-11-15T22:33:12.995Z,100460.81
2022-11-15T22:35:14.905Z,100459.09
2022-11-15T22:37:20.919Z,100455.53
2022-11-15T22:39:22.728Z,100457.31
2022-11-15T22:41:24.236Z,100456.44
2022-11-15T22:43:27.053Z,100450.31
2022-11-15T22:45:28.572Z,100447.66
2022-11-15T22:47:30.071Z,100453.81
2022-11-15T22:49:31.566Z,100452.03
2022-11-15T22:51:33.084Z,100458.13
2022-11-15T22:53:34.746Z,100443.22
2022-11-15T22:55:41.202Z,100445.81
2022-11-15T22:57:43.133Z,100449.38
2022-11-15T22:59:44.695Z,100442.31
2022-11-15T23:01:46.596Z,100443.22
2022-11-15T23:03:48.427Z,100429.09
2022-11-15T23:05:50.288Z,100436.16
2022-11-15T23:07:51.802Z,100425.59
2022-11-15T23:09:55.283Z,100429.09
2022-11-15T23:12:15.201Z,100422.09
2022-11-15T23:14:16.699Z,100420.38
2022-11-15T23:16:34.370Z,100428.28
2022-11-15T23:18:41.740Z,100427.38
2022-11-15T23:20:43.992Z,100427.38
2022-11-15T23:22:48.193Z,100423.88
2022-11-15T23:24:51.667Z,100417.72
2022-11-15T23:26:58.075Z,100423.00
2022-11-15T23:28:59.875Z,100424.72
2022-11-15T23:31:25.620Z,100422.88
2022-11-15T23:33:45.422Z,100413.25
2022-11-15T23:35:54.881Z,100409.66
2022-11-15T23:37:56.375Z,100410.53
2022-11-15T23:39:57.862Z,100402.59
2022-11-15T23:42:03.156Z,100414.03
2022-11-15T23:44:07.660Z,100405.19
2022-11-15T23:46:09.176Z,100410.41
2022-11-15T23:48:11.321Z,100407.72
2022-11-15T23:50:12.817Z,100398.00
2022-11-15T23:52:15.562Z,100395.34